KOKC/OKC METAR and TAF weather

Enter ICAO airport designator
Station Type Date Time Source
KOKC METAR 2019/12/13 02:52 UTC NOAA

KOKC 130252Z 16007KT 10SM FEW040 BKN180 BKN250 05/01 A3002 RMK AO2 SLP172 T00500011 50001


Station Type Date Time Source
KOKC Decoded METAR 2019/12/13 02:52 UTC NOAA

WILL ROGERS WORLD AIRPORT, OK, United States (KOKC) 35-23N 97-36W 390M
Dec 12, 2019 - 09:52 PM EST / 2019.12.13 0252 UTC
Wind: from the SSE (160 degrees) at 8 MPH (7 KT):0
Visibility: 10 mile(s):0
Sky conditions: mostly cloudy
Temperature: 41.0 F (5.0 C)
Dew Point: 34.0 F (1.1 C)
Relative Humidity: 75%
Pressure (altimeter): 30.02 in. Hg (1016 hPa)
Pressure tendency: 0.00 inches (0.1 hPa) higher than three hours ago
ob: KOKC 130252Z 16007KT 10SM FEW040 BKN180 BKN250 05/01 A3002 RMK AO2 SLP172 T00500011 50001
cycle: 3

Station Type Date Time Source
KOKC TAF 2019/12/12 18:22 UTC NOAA

TAF KOKC 121720Z 1218/1318 19015G22KT P6SM FEW050 SCT200
FM122200 17007KT P6SM BKN150

Example: see airport list